createdAt,value
2024-01-27T00:01:35.382Z,21.71
2024-01-27T00:04:39.377Z,21.70
2024-01-27T00:07:41.989Z,21.67
2024-01-27T00:10:47.313Z,21.67
2024-01-27T00:13:49.941Z,21.67
2024-01-27T00:16:52.547Z,21.65
2024-01-27T00:19:56.629Z,21.65
2024-01-27T00:22:59.210Z,21.63
2024-01-27T00:26:01.893Z,21.62
2024-01-27T00:29:05.041Z,21.61
2024-01-27T00:32:07.570Z,21.60
2024-01-27T00:35:12.495Z,21.58
2024-01-27T00:38:16.032Z,21.57
2024-01-27T00:41:19.028Z,21.55
2024-01-27T00:44:21.792Z,21.53
2024-01-27T00:47:24.379Z,21.53
2024-01-27T00:50:28.348Z,21.51
2024-01-27T00:53:30.991Z,21.51
2024-01-27T00:56:34.229Z,21.49
2024-01-27T00:59:36.838Z,21.48
2024-01-27T01:02:41.795Z,21.48
2024-01-27T01:05:46.108Z,21.47
2024-01-27T01:08:49.204Z,21.46
2024-01-27T01:11:51.896Z,21.44
2024-01-27T01:14:54.923Z,21.42
2024-01-27T01:17:58.484Z,21.44
2024-01-27T01:21:03.046Z,21.41
2024-01-27T01:24:05.949Z,21.41
2024-01-27T01:27:08.597Z,21.40
2024-01-27T01:30:12.302Z,21.39
2024-01-27T01:33:15.095Z,21.39
2024-01-27T01:36:19.307Z,21.37
2024-01-27T01:39:22.148Z,21.37
2024-01-27T01:42:26.088Z,21.36
2024-01-27T01:45:29.046Z,21.35
2024-01-27T01:48:32.162Z,21.35
2024-01-27T01:51:35.972Z,21.34
2024-01-27T01:54:38.581Z,21.35
2024-01-27T01:57:41.186Z,21.31
2024-01-27T02:00:43.923Z,21.30
2024-01-27T02:03:54.387Z,21.28
2024-01-27T02:06:58.304Z,21.28
2024-01-27T02:10:01.008Z,21.27
2024-01-27T02:13:03.744Z,21.27
2024-01-27T02:16:07.120Z,21.26
2024-01-27T02:19:09.910Z,21.26
2024-01-27T02:22:14.010Z,21.25
2024-01-27T02:25:18.078Z,21.24
2024-01-27T02:28:20.712Z,21.22
2024-01-27T02:31:23.329Z,21.24
2024-01-27T02:34:25.985Z,21.24
2024-01-27T02:37:28.562Z,21.24
2024-01-27T02:40:32.560Z,21.23
2024-01-27T02:43:35.149Z,21.23
2024-01-27T02:46:37.864Z,21.22
2024-01-27T02:49:40.574Z,21.22
2024-01-27T02:52:43.372Z,21.20
2024-01-27T02:55:47.447Z,21.20
2024-01-27T02:58:50.044Z,21.18
2024-01-27T03:01:52.656Z,21.17
2024-01-27T03:04:55.236Z,21.16
2024-01-27T03:07:58.341Z,21.16
2024-01-27T03:11:02.489Z,21.16
2024-01-27T03:14:05.136Z,21.14
2024-01-27T03:17:08.413Z,21.13
2024-01-27T03:20:11.932Z,21.12
2024-01-27T03:23:14.508Z,21.12
2024-01-27T03:26:18.599Z,21.10
2024-01-27T03:29:21.234Z,21.10
2024-01-27T03:32:23.801Z,21.09
2024-01-27T03:35:27.293Z,21.08
2024-01-27T03:38:30.083Z,21.08
2024-01-27T03:41:34.752Z,21.07
2024-01-27T03:44:37.407Z,21.07
2024-01-27T03:47:40.334Z,21.07
2024-01-27T03:50:43.330Z,21.05
2024-01-27T03:53:46.931Z,21.07
2024-01-27T03:56:51.006Z,21.04
2024-01-27T03:59:53.606Z,21.04
2024-01-27T04:02:56.232Z,21.03
2024-01-27T04:05:58.890Z,21.02
2024-01-27T04:09:01.517Z,21.02
2024-01-27T04:12:05.938Z,21.02
2024-01-27T04:15:09.111Z,21.01
2024-01-27T04:18:12.789Z,21.01
2024-01-27T04:21:15.787Z,20.99
2024-01-27T04:24:18.808Z,20.98
2024-01-27T04:27:22.856Z,20.97
2024-01-27T04:30:25.498Z,20.98
2024-01-27T04:33:28.229Z,20.96
2024-01-27T04:36:31.312Z,21.01
2024-01-27T04:39:34.172Z,21.19
2024-01-27T04:42:40.084Z,21.43
2024-01-27T04:45:42.719Z,21.69
2024-01-27T04:48:45.533Z,21.92
2024-01-27T04:51:48.823Z,22.12
2024-01-27T04:54:51.291Z,22.30
2024-01-27T04:57:55.568Z,22.44
2024-01-27T05:00:58.215Z,21.92
2024-01-27T05:04:01.292Z,20.93
2024-01-27T05:07:04.826Z,20.11
2024-01-27T05:10:09.322Z,19.46
2024-01-27T05:13:13.259Z,18.93
2024-01-27T05:16:15.912Z,18.64
2024-01-27T05:19:19.361Z,19.05
2024-01-27T05:22:22.096Z,19.63
2024-01-27T05:25:24.640Z,20.11
2024-01-27T05:28:29.065Z,20.51
2024-01-27T05:31:31.706Z,20.78
2024-01-27T05:34:34.734Z,21.04
2024-01-27T05:37:38.142Z,21.25
2024-01-27T05:40:42.157Z,21.46
2024-01-27T05:43:46.393Z,21.66
2024-01-27T05:46:49.154Z,21.81
2024-01-27T05:49:51.780Z,21.96
2024-01-27T05:52:54.437Z,22.10
2024-01-27T05:55:57.775Z,22.23
2024-01-27T05:59:01.690Z,22.30
2024-01-27T06:02:04.477Z,22.35
2024-01-27T06:05:10.024Z,22.41
2024-01-27T06:08:12.691Z,22.49
2024-01-27T06:11:15.835Z,22.55
2024-01-27T06:14:19.586Z,22.61
2024-01-27T06:17:22.007Z,22.65
2024-01-27T06:20:24.645Z,22.64
2024-01-27T06:23:27.989Z,22.62
2024-01-27T06:26:30.560Z,22.60
2024-01-27T06:29:34.442Z,22.58
2024-01-27T06:32:37.202Z,22.56
2024-01-27T06:35:39.792Z,22.57
2024-01-27T06:38:43.146Z,22.64
2024-01-27T06:41:46.003Z,22.72
2024-01-27T06:44:49.946Z,22.77
2024-01-27T06:47:52.735Z,22.79
2024-01-27T06:50:55.608Z,22.80
2024-01-27T06:53:58.206Z,22.79
2024-01-27T06:57:01.366Z,22.82
2024-01-27T07:00:06.569Z,22.81
2024-01-27T07:03:13.483Z,22.87
2024-01-27T07:06:17.061Z,22.95
2024-01-27T07:09:20.364Z,22.99
2024-01-27T07:12:23.321Z,23.02
2024-01-27T07:15:28.167Z,23.01
2024-01-27T07:18:31.296Z,22.97
2024-01-27T07:21:34.107Z,22.96
2024-01-27T07:24:36.687Z,22.92
2024-01-27T07:27:39.517Z,22.88
2024-01-27T07:30:43.567Z,22.79
2024-01-27T07:33:46.815Z,22.80
2024-01-27T07:36:50.367Z,22.85
2024-01-27T07:39:53.146Z,22.89
2024-01-27T07:42:55.904Z,22.80
2024-01-27T07:45:59.814Z,22.67
2024-01-27T07:49:02.466Z,22.64
2024-01-27T07:52:05.511Z,22.60
2024-01-27T07:55:09.004Z,22.58
2024-01-27T07:58:11.658Z,22.58
2024-01-27T08:01:17.795Z,22.62
2024-01-27T08:04:20.557Z,22.64
2024-01-27T08:07:23.218Z,22.63
2024-01-27T08:10:25.877Z,22.63
2024-01-27T08:13:28.451Z,22.66
2024-01-27T08:16:32.486Z,22.73
2024-01-27T08:19:35.567Z,22.77
2024-01-27T08:22:38.467Z,22.86
2024-01-27T08:25:42.086Z,22.77
2024-01-27T08:28:44.639Z,22.75
2024-01-27T08:31:48.608Z,22.79
2024-01-27T08:34:51.326Z,22.82
2024-01-27T08:37:54.111Z,22.82
2024-01-27T08:40:56.677Z,22.80
2024-01-27T08:43:59.262Z,22.77
2024-01-27T08:47:04.935Z,22.86
2024-01-27T08:50:09.746Z,22.89
2024-01-27T08:53:12.366Z,22.90
2024-01-27T08:56:15.102Z,22.89
2024-01-27T08:59:17.742Z,22.87
2024-01-27T09:02:21.680Z,22.83
2024-01-27T09:05:24.338Z,22.79
2024-01-27T09:08:26.974Z,22.74
2024-01-27T09:11:31.280Z,22.77
2024-01-27T09:14:34.662Z,22.84
2024-01-27T09:17:38.666Z,22.86
2024-01-27T09:20:41.282Z,22.88
2024-01-27T09:23:43.931Z,22.87
2024-01-27T09:26:46.500Z,22.85
2024-01-27T09:29:49.056Z,22.80
2024-01-27T09:32:53.191Z,22.76
2024-01-27T09:35:55.982Z,22.76
2024-01-27T09:39:00.541Z,22.80
2024-01-27T09:42:07.632Z,22.85
2024-01-27T09:45:11.420Z,22.87
2024-01-27T09:48:16.364Z,22.86
2024-01-27T09:51:19.093Z,22.83
2024-01-27T09:54:21.819Z,22.80
2024-01-27T09:57:24.608Z,22.80
2024-01-27T10:00:27.651Z,22.82
2024-01-27T10:03:31.498Z,22.81
2024-01-27T10:06:34.314Z,22.80
2024-01-27T10:09:37.156Z,22.77
2024-01-27T10:12:42.741Z,22.73
2024-01-27T10:15:45.466Z,22.70
2024-01-27T10:18:49.537Z,22.65
2024-01-27T10:22:03.140Z,22.64
2024-01-27T10:25:06.729Z,22.69
2024-01-27T10:28:09.763Z,22.76
2024-01-27T10:31:12.923Z,22.81
2024-01-27T10:34:20.874Z,22.81
2024-01-27T10:37:27.071Z,22.81
2024-01-27T10:40:30.052Z,22.79
2024-01-27T10:43:37.113Z,22.76
2024-01-27T10:46:40.130Z,22.72
2024-01-27T10:49:44.898Z,22.67
2024-01-27T10:52:48.560Z,22.67
2024-01-27T10:55:52.439Z,22.74
2024-01-27T10:58:55.696Z,22.87
2024-01-27T11:01:58.717Z,22.96
2024-01-27T11:05:02.824Z,23.02
2024-01-27T11:08:08.044Z,23.04
2024-01-27T11:11:10.730Z,23.04
2024-01-27T11:14:13.338Z,23.01
2024-01-27T11:17:16.456Z,22.97
2024-01-27T11:20:20.260Z,22.93
2024-01-27T11:23:23.287Z,22.88
2024-01-27T11:26:27.122Z,22.82
2024-01-27T11:29:30.806Z,22.76
2024-01-27T11:32:33.906Z,22.74
2024-01-27T11:35:38.356Z,22.77
2024-01-27T11:38:40.981Z,22.87
2024-01-27T11:41:44.823Z,22.95
2024-01-27T11:44:47.399Z,23.02
2024-01-27T11:47:50.317Z,23.05
2024-01-27T11:51:09.200Z,23.05
2024-01-27T11:54:11.905Z,23.01
2024-01-27T11:57:14.476Z,22.96
2024-01-27T12:00:17.610Z,22.94
2024-01-27T12:03:20.305Z,22.89
2024-01-27T12:06:24.747Z,22.84
2024-01-27T12:09:27.416Z,22.78
2024-01-27T12:12:30.026Z,22.75
2024-01-27T12:15:32.687Z,22.69
2024-01-27T12:18:35.406Z,22.65
2024-01-27T12:21:39.571Z,22.65
2024-01-27T12:24:42.299Z,22.73
2024-01-27T12:27:45.625Z,22.84
2024-01-27T12:30:49.167Z,22.92
2024-01-27T12:33:52.640Z,22.96
2024-01-27T12:36:56.665Z,22.96
2024-01-27T12:39:59.240Z,22.96
2024-01-27T12:43:01.778Z,22.93
2024-01-27T12:46:04.520Z,22.90
2024-01-27T12:49:07.242Z,22.85
2024-01-27T12:52:11.178Z,22.80
2024-01-27T12:55:13.785Z,22.75
2024-01-27T12:58:16.459Z,22.71
2024-01-27T13:01:19.074Z,22.65
2024-01-27T13:04:21.668Z,22.61
2024-01-27T13:07:25.821Z,22.58
2024-01-27T13:10:28.375Z,22.54
2024-01-27T13:13:30.911Z,22.54
2024-01-27T13:16:33.766Z,22.60
2024-01-27T13:19:36.612Z,22.70
2024-01-27T13:22:40.624Z,22.80
2024-01-27T13:25:50.036Z,22.88
2024-01-27T13:29:00.434Z,22.93
2024-01-27T13:32:03.898Z,22.94
2024-01-27T13:35:08.769Z,22.95
2024-01-27T13:38:13.522Z,22.93
2024-01-27T13:41:16.574Z,22.91
2024-01-27T13:44:19.096Z,22.89
2024-01-27T13:47:21.696Z,22.85
2024-01-27T13:50:26.633Z,22.82
2024-01-27T13:53:38.924Z,22.79
2024-01-27T13:56:49.049Z,22.85
2024-01-27T13:59:51.747Z,22.93
2024-01-27T14:02:54.469Z,22.99
2024-01-27T14:05:57.218Z,23.04
2024-01-27T14:09:01.893Z,23.06
2024-01-27T14:12:04.719Z,23.07
2024-01-27T14:15:08.882Z,23.05
2024-01-27T14:18:15.360Z,23.04
2024-01-27T14:21:18.322Z,23.01
2024-01-27T14:24:22.275Z,22.99
2024-01-27T14:27:27.383Z,22.96
2024-01-27T14:30:30.088Z,22.97
2024-01-27T14:33:32.678Z,23.04
2024-01-27T14:36:35.375Z,23.19
2024-01-27T14:39:42.114Z,23.29
2024-01-27T14:42:46.554Z,23.36
2024-01-27T14:45:49.578Z,23.36
2024-01-27T14:48:52.261Z,23.34
2024-01-27T14:51:54.960Z,23.26
2024-01-27T14:54:58.857Z,23.20
2024-01-27T14:58:02.634Z,23.13
2024-01-27T15:01:05.582Z,23.05
2024-01-27T15:04:08.394Z,22.99
2024-01-27T15:07:16.625Z,22.94
2024-01-27T15:10:21.806Z,22.86
2024-01-27T15:13:26.239Z,22.80
2024-01-27T15:16:30.038Z,22.76
2024-01-27T15:19:40.177Z,22.71
2024-01-27T15:22:45.114Z,22.70
2024-01-27T15:25:49.877Z,22.76
2024-01-27T15:28:52.559Z,22.87
2024-01-27T15:31:55.133Z,22.97
2024-01-27T15:34:57.816Z,23.00
2024-01-27T15:38:00.614Z,23.02
2024-01-27T15:41:08.445Z,22.99
2024-01-27T15:44:11.117Z,22.98
2024-01-27T15:47:13.629Z,22.94
2024-01-27T15:50:17.622Z,22.90
2024-01-27T15:53:20.222Z,22.82
2024-01-27T15:56:24.133Z,22.77
2024-01-27T15:59:26.681Z,22.72
2024-01-27T16:02:29.237Z,22.67
2024-01-27T16:05:31.821Z,22.62
2024-01-27T16:08:34.388Z,22.64
2024-01-27T16:11:39.293Z,22.73
2024-01-27T16:14:41.851Z,22.83
2024-01-27T16:17:44.522Z,22.90
2024-01-27T16:20:50.645Z,22.92
2024-01-27T16:23:53.343Z,22.94
2024-01-27T16:26:57.333Z,22.92
2024-01-27T16:30:01.044Z,22.88
2024-01-27T16:33:03.727Z,22.84
2024-01-27T16:36:08.030Z,22.79
2024-01-27T16:39:11.688Z,22.75
2024-01-27T16:42:16.363Z,22.69
2024-01-27T16:45:18.982Z,22.65
2024-01-27T16:48:22.884Z,22.61
2024-01-27T16:51:25.663Z,22.55
2024-01-27T16:54:28.339Z,22.49
2024-01-27T16:57:33.240Z,22.45
2024-01-27T17:00:36.078Z,22.46
2024-01-27T17:03:38.772Z,22.55
2024-01-27T17:06:41.512Z,22.66
2024-01-27T17:09:44.239Z,22.74
2024-01-27T17:12:48.166Z,22.80
2024-01-27T17:15:51.095Z,22.83
2024-01-27T17:18:54.543Z,22.81
2024-01-27T17:21:57.174Z,22.79
2024-01-27T17:25:02.990Z,22.77
2024-01-27T17:28:07.459Z,22.72
2024-01-27T17:31:10.252Z,22.68
2024-01-27T17:34:13.049Z,22.63
2024-01-27T17:37:15.849Z,22.60
2024-01-27T17:40:18.621Z,22.61
2024-01-27T17:43:23.454Z,22.69
2024-01-27T17:46:26.076Z,22.75
2024-01-27T17:49:28.746Z,22.81
2024-01-27T17:52:31.673Z,22.81
2024-01-27T17:55:34.250Z,22.82
2024-01-27T17:58:38.138Z,22.78
2024-01-27T18:01:40.760Z,22.73
2024-01-27T18:04:43.667Z,22.68
2024-01-27T18:07:46.297Z,22.64
2024-01-27T18:10:48.936Z,22.61
2024-01-27T18:13:52.850Z,22.57
2024-01-27T18:16:55.659Z,22.59
2024-01-27T18:19:58.670Z,22.67
2024-01-27T18:23:01.335Z,22.76
2024-01-27T18:26:04.000Z,22.83
2024-01-27T18:29:07.991Z,22.87
2024-01-27T18:32:10.548Z,22.86
2024-01-27T18:35:13.411Z,22.82
2024-01-27T18:38:16.107Z,22.80
2024-01-27T18:41:19.386Z,22.75
2024-01-27T18:44:23.246Z,22.69
2024-01-27T18:47:27.270Z,22.65
2024-01-27T18:50:30.087Z,22.59
2024-01-27T18:53:34.583Z,22.57
2024-01-27T18:56:37.359Z,22.55
2024-01-27T18:59:41.256Z,22.63
2024-01-27T19:02:44.350Z,22.71
2024-01-27T19:05:46.802Z,22.79
2024-01-27T19:08:49.338Z,22.82
2024-01-27T19:11:52.348Z,22.84
2024-01-27T19:14:56.099Z,22.82
2024-01-27T19:17:58.788Z,22.79
2024-01-27T19:21:01.418Z,22.74
2024-01-27T19:24:04.673Z,22.70
2024-01-27T19:27:08.293Z,22.64
2024-01-27T19:30:13.416Z,22.60
2024-01-27T19:33:16.130Z,22.56
2024-01-27T19:36:18.800Z,22.54
2024-01-27T19:39:21.765Z,22.59
2024-01-27T19:42:24.338Z,22.68
2024-01-27T19:45:28.394Z,22.78
2024-01-27T19:48:31.160Z,22.81
2024-01-27T19:51:33.999Z,22.83
2024-01-27T19:54:36.767Z,22.83
2024-01-27T19:57:40.147Z,22.80
2024-01-27T20:00:44.362Z,22.75
2024-01-27T20:03:48.723Z,22.71
2024-01-27T20:06:56.905Z,22.66
2024-01-27T20:10:01.229Z,22.61
2024-01-27T20:13:05.583Z,22.55
2024-01-27T20:16:09.826Z,22.54
2024-01-27T20:19:12.589Z,22.60
2024-01-27T20:22:15.840Z,22.70
2024-01-27T20:25:18.226Z,22.79
2024-01-27T20:28:23.119Z,22.82
2024-01-27T20:31:28.927Z,22.82
2024-01-27T20:34:31.961Z,22.82
2024-01-27T20:37:34.989Z,22.78
2024-01-27T20:40:38.287Z,22.74
2024-01-27T20:43:42.629Z,22.68
2024-01-27T20:46:47.750Z,22.63
2024-01-27T20:49:51.196Z,22.61
2024-01-27T20:52:54.078Z,22.49
2024-01-27T20:55:56.811Z,22.41
2024-01-27T20:58:59.597Z,22.43
2024-01-27T21:02:04.378Z,22.47
2024-01-27T21:05:07.512Z,22.51
2024-01-27T21:08:09.908Z,22.51
2024-01-27T21:11:14.600Z,22.46
2024-01-27T21:14:17.361Z,22.41
2024-01-27T21:17:21.289Z,22.35
2024-01-27T21:20:23.905Z,22.29
2024-01-27T21:23:26.559Z,22.23
2024-01-27T21:26:29.239Z,22.16
2024-01-27T21:29:31.848Z,22.12
2024-01-27T21:32:35.927Z,22.12
2024-01-27T21:35:38.710Z,22.19
2024-01-27T21:38:41.245Z,22.27
2024-01-27T21:41:43.805Z,22.32
2024-01-27T21:44:46.847Z,22.34
2024-01-27T21:47:50.873Z,22.34
2024-01-27T21:50:53.977Z,22.32
2024-01-27T21:53:56.603Z,22.30
2024-01-27T21:57:01.511Z,22.25
2024-01-27T22:00:04.373Z,22.21
2024-01-27T22:03:08.428Z,22.17
2024-01-27T22:06:11.470Z,22.13
2024-01-27T22:09:14.443Z,22.10
2024-01-27T22:12:19.360Z,22.03
2024-01-27T22:15:22.140Z,21.99
2024-01-27T22:18:26.244Z,21.94
2024-01-27T22:21:29.223Z,21.89
2024-01-27T22:24:31.966Z,21.85
2024-01-27T22:27:34.934Z,21.80
2024-01-27T22:30:37.717Z,21.74
2024-01-27T22:33:41.811Z,21.72
2024-01-27T22:36:44.620Z,21.68
2024-01-27T22:39:47.445Z,21.64
2024-01-27T22:42:50.152Z,21.62
2024-01-27T22:45:52.925Z,21.57
2024-01-27T22:48:56.949Z,21.55
2024-01-27T22:52:01.891Z,21.51
2024-01-27T22:55:04.631Z,21.48
2024-01-27T22:58:07.235Z,21.45
2024-01-27T23:01:10.649Z,21.42
2024-01-27T23:04:14.887Z,21.39
2024-01-27T23:07:17.777Z,21.38
2024-01-27T23:10:20.405Z,21.33
2024-01-27T23:13:23.954Z,21.31
2024-01-27T23:16:28.500Z,21.28
2024-01-27T23:19:33.045Z,21.27
2024-01-27T23:22:36.077Z,21.25
2024-01-27T23:25:39.690Z,21.23
2024-01-27T23:28:44.930Z,21.20
2024-01-27T23:31:47.631Z,21.17
2024-01-27T23:34:51.954Z,21.14
2024-01-27T23:37:54.656Z,21.13
2024-01-27T23:40:57.659Z,21.11
2024-01-27T23:44:00.348Z,21.09
2024-01-27T23:47:04.046Z,21.08
2024-01-27T23:50:09.324Z,21.06
2024-01-27T23:53:12.865Z,21.03
2024-01-27T23:56:15.584Z,21.03
2024-01-27T23:59:19.350Z,21.01
